Time;durP1;ratioP1;P1;durP2;ratioP2;P2;SDS_P1;SDS_P2;PMS_P1;PMS_P2;Temp;Humidity;BMP_temperature;BMP_pressure;BME280_temperature;BME280_humidity;BME280_pressure;Samples;Min_cycle;Max_cycle;Signal;HPM_P1;HPM_P2
2022/04/22 00:00:24;;;;;;;3.42;3.13;;;;;;;8.84;75.41;94155.00;5099546;28;20090;-58
2022/04/22 00:02:50;;;;;;;3.50;3.20;;;;;;;8.79;75.85;94158.16;5100581;28;20510;-58
2022/04/22 00:05:16;;;;;;;3.20;2.97;;;;;;;8.72;76.20;94149.31;5097029;28;20068;-58
2022/04/22 00:07:41;;;;;;;3.13;2.92;;;;;;;8.63;76.34;94150.34;5095490;28;20065;-58
2022/04/22 00:10:09;;;;;;;3.47;3.17;;;;;;;8.60;75.99;94141.81;5098828;28;20461;-58
2022/04/22 00:12:35;;;;;;;3.45;3.13;;;;;;;8.59;76.40;94144.59;5097152;28;20081;-58
2022/04/22 00:15:00;;;;;;;4.90;3.40;;;;;;;8.57;77.27;94142.16;5097273;28;20028;-58
2022/04/22 00:17:26;;;;;;;3.50;3.20;;;;;;;8.49;76.85;94149.19;5095977;28;20488;-58
2022/04/22 00:19:51;;;;;;;3.42;3.13;;;;;;;8.41;76.44;94132.50;5098147;28;20039;-58
2022/04/22 00:22:17;;;;;;;3.53;3.22;;;;;;;8.39;76.99;94131.00;5099803;28;20028;-58
2022/04/22 00:24:42;;;;;;;3.60;3.40;;;;;;;8.37;78.13;94140.84;5099024;28;20041;-58
2022/04/22 00:27:07;;;;;;;3.70;3.47;;;;;;;8.36;77.20;94136.59;5097233;28;20028;-58
2022/04/22 00:29:33;;;;;;;3.25;3.05;;;;;;;8.34;78.75;94135.94;5098428;28;20491;-58
2022/04/22 00:31:58;;;;;;;4.28;3.33;;;;;;;8.24;78.77;94134.28;5097476;28;20081;-58
2022/04/22 00:34:24;;;;;;;3.80;3.50;;;;;;;8.22;78.77;94133.66;5095406;28;20395;-58
2022/04/22 00:36:49;;;;;;;4.95;2.92;;;;;;;8.22;77.84;94132.84;5096658;28;20411;-58
2022/04/22 00:39:14;;;;;;;6.88;2.85;;;;;;;8.21;77.89;94133.81;5096429;28;20127;-58
2022/04/22 00:41:40;;;;;;;4.63;3.88;;;;;;;8.23;77.46;94132.66;5096041;27;20055;-58
2022/04/22 00:44:05;;;;;;;3.90;3.28;;;;;;;8.24;78.56;94125.63;5093719;28;20040;-58
2022/04/22 00:46:31;;;;;;;3.05;2.85;;;;;;;8.20;78.38;94125.13;5097992;28;20039;-59
2022/04/22 00:48:56;;;;;;;3.45;3.25;;;;;;;8.15;79.11;94128.25;5093659;28;20052;-58
2022/04/22 00:51:22;;;;;;;3.25;2.95;;;;;;;8.08;78.54;94121.22;5097103;28;20043;-58
2022/04/22 00:53:52;;;;;;;3.25;3.15;;;;;;;8.05;78.89;94118.91;5097028;28;20070;-58
2022/04/22 00:56:17;;;;;;;3.42;3.10;;;;;;;8.04;78.36;94125.97;5094420;28;20444;-58
2022/04/22 00:58:47;;;;;;;4.47;3.47;;;;;;;8.06;78.51;94120.53;5093224;28;20111;-58
2022/04/22 01:01:13;;;;;;;3.72;3.42;;;;;;;8.01;78.61;94131.53;5096666;28;20038;-58
2022/04/22 01:03:39;;;;;;;3.00;2.88;;;;;;;7.97;78.67;94128.41;5095390;28;20039;-58
2022/04/22 01:11:35;;;;;;;3.67;3.47;;;;;;;7.88;79.38;94126.78;5095180;28;20049;-58
2022/04/22 01:14:10;;;;;;;3.58;3.38;;;;;;;7.88;80.38;94117.13;5094346;28;20213;-58
2022/04/22 01:16:35;;;;;;;4.28;3.40;;;;;;;7.88;79.49;94122.38;5096151;28;20019;-58
2022/04/22 01:19:00;;;;;;;3.83;3.42;;;;;;;7.77;80.36;94114.84;5098523;28;20048;-58
2022/04/22 01:21:26;;;;;;;4.18;3.17;;;;;;;7.79;79.79;94123.34;5093797;28;20122;-58
2022/04/22 01:23:51;;;;;;;3.72;3.28;;;;;;;7.80;79.29;94118.91;5097103;28;20028;-58
2022/04/22 01:26:17;;;;;;;4.25;3.80;;;;;;;7.76;79.57;94123.69;5096900;28;20032;-58
2022/04/22 01:28:43;;;;;;;3.55;3.30;;;;;;;7.71;78.99;94121.53;5096657;28;20073;-59
2022/04/22 01:31:08;;;;;;;3.42;3.22;;;;;;;7.73;78.56;94111.72;5094632;28;20039;-58
2022/04/22 01:33:34;;;;;;;3.28;3.08;;;;;;;7.73;79.10;94118.75;5094809;28;20031;-58
2022/04/22 01:36:00;;;;;;;5.82;2.90;;;;;;;7.72;78.62;94123.19;5095719;28;20059;-58
2022/04/22 01:38:26;;;;;;;3.58;3.28;;;;;;;7.72;79.51;94117.09;5094792;28;20122;-58
2022/04/22 01:40:51;;;;;;;3.72;3.53;;;;;;;7.66;80.23;94113.38;5093425;28;20116;-58
2022/04/22 01:43:17;;;;;;;3.60;3.30;;;;;;;7.61;79.75;94120.88;5097193;28;20054;-58
2022/04/22 01:45:43;;;;;;;3.60;3.28;;;;;;;7.60;78.56;94122.69;5089448;28;20036;-58
2022/04/22 01:48:08;;;;;;;3.80;3.50;;;;;;;7.61;78.60;94115.63;5093953;28;20417;-58
2022/04/22 01:50:34;;;;;;;6.75;3.63;;;;;;;7.56;79.41;94113.50;5095359;28;20030;-58
2022/04/22 01:52:59;;;;;;;3.38;3.15;;;;;;;7.50;79.66;94114.13;5092923;28;20031;-58
2022/04/22 01:55:26;;;;;;;4.13;3.75;;;;;;;7.47;78.85;94114.47;5098667;28;20032;-58
2022/04/22 01:57:53;;;;;;;3.08;2.85;;;;;;;7.40;78.38;94121.34;5093158;28;20110;-59
2022/04/22 02:00:18;;;;;;;3.53;3.22;;;;;;;7.37;78.73;94121.66;5091397;28;20502;-58
2022/04/22 02:02:44;;;;;;;5.05;3.33;;;;;;;7.31;78.83;94120.50;5097577;28;20024;-58
2022/04/22 02:05:09;;;;;;;4.05;3.50;;;;;;;7.30;78.47;94108.38;5097492;28;20023;-58
2022/04/22 02:07:34;;;;;;;3.88;3.53;;;;;;;7.27;78.30;94120.00;5092985;28;20023;-58
2022/04/22 02:10:00;;;;;;;3.33;3.03;;;;;;;7.22;78.50;94116.25;5096320;28;20344;-58
2022/04/22 02:12:25;;;;;;;3.90;3.50;;;;;;;7.21;79.44;94114.59;5096305;28;20648;-59
2022/04/22 02:14:51;;;;;;;3.88;3.60;;;;;;;7.24;79.21;94115.09;5094396;28;20063;-58
2022/04/22 02:17:18;;;;;;;3.92;3.63;;;;;;;7.21;79.29;94117.22;5093779;28;20024;-58
2022/04/22 02:19:43;;;;;;;5.97;3.42;;;;;;;7.15;78.91;94111.63;5093141;28;20035;-58
2022/04/22 02:22:09;;;;;;;4.05;3.50;;;;;;;7.13;79.11;94112.78;5095325;28;20028;-59
2022/04/22 02:24:34;;;;;;;3.90;3.58;;;;;;;7.12;80.60;94113.75;5092804;28;20027;-58
2022/04/22 02:29:43;;;;;;;3.80;3.50;;;;;;;7.03;79.67;94113.72;5093311;28;20479;-58
2022/04/22 02:32:09;;;;;;;4.65;3.50;;;;;;;7.04;79.28;94114.53;5094174;28;20052;-59
2022/04/22 02:34:35;;;;;;;3.33;3.13;;;;;;;7.01;79.74;94113.06;5094018;28;20106;-59
2022/04/22 02:37:00;;;;;;;3.58;2.72;;;;;;;7.02;79.91;94108.66;5095014;28;20150;-59
2022/04/22 02:39:26;;;;;;;3.72;3.45;;;;;;;6.97;80.31;94106.50;5095304;28;20031;-58
2022/04/22 02:47:19;;;;;;;3.88;3.35;;;;;;;6.90;80.49;94102.06;5091817;28;20034;-59
2022/04/22 02:49:45;;;;;;;3.95;3.65;;;;;;;6.88;81.59;94108.28;5093988;28;20059;-58
2022/04/22 02:52:14;;;;;;;3.38;3.03;;;;;;;6.85;80.27;94103.38;5093263;28;20396;-58
2022/04/22 02:54:40;;;;;;;3.22;3.00;;;;;;;6.84;80.23;94106.97;5093802;28;20071;-59
2022/04/22 02:57:07;;;;;;;3.95;3.65;;;;;;;6.90;80.16;94104.69;5096036;28;20056;-59
2022/04/22 02:59:34;;;;;;;3.65;3.35;;;;;;;6.86;80.63;94106.81;5096763;28;20035;-59
2022/04/22 03:01:59;;;;;;;3.55;3.28;;;;;;;6.83;80.78;94104.47;5095070;28;20417;-58
2022/04/22 03:04:26;;;;;;;7.07;4.03;;;;;;;6.81;80.80;94114.28;5095504;28;20028;-58
2022/04/22 03:06:55;;;;;;;16.23;3.67;;;;;;;6.76;81.23;94112.16;5092484;28;20538;-59
2022/04/22 03:09:21;;;;;;;4.07;3.70;;;;;;;6.76;81.04;94104.31;5096230;28;20406;-58
2022/04/22 03:11:46;;;;;;;4.22;3.53;;;;;;;6.71;81.75;94109.19;5092913;28;20134;-58
2022/04/22 03:14:12;;;;;;;4.97;3.78;;;;;;;6.65;81.94;94107.19;5094381;28;20031;-58
2022/04/22 03:16:37;;;;;;;4.75;3.13;;;;;;;6.66;81.20;94103.59;5094575;28;20128;-58
2022/04/22 03:19:03;;;;;;;3.35;3.15;;;;;;;6.68;81.55;94106.88;5094675;28;20052;-58
2022/04/22 03:21:28;;;;;;;3.65;3.35;;;;;;;6.64;81.46;94108.19;5097506;28;20483;-58
2022/04/22 03:23:54;;;;;;;3.60;3.30;;;;;;;6.68;80.71;94105.09;5096272;28;20198;-58
2022/04/22 03:26:19;;;;;;;4.47;3.85;;;;;;;6.66;80.34;94103.59;5098364;28;20028;-58
2022/04/22 03:28:46;;;;;;;3.90;3.50;;;;;;;6.58;82.09;94102.59;5098361;28;20055;-58
2022/04/22 03:31:13;;;;;;;3.92;3.50;;;;;;;6.58;81.84;94107.84;5099794;28;20019;-58
2022/04/22 03:33:38;;;;;;;4.03;3.72;;;;;;;6.53;82.10;94099.66;5096651;28;20051;-58
2022/04/22 03:36:03;;;;;;;3.30;3.00;;;;;;;6.51;81.34;94106.81;5097157;28;20149;-58
2022/04/22 03:38:29;;;;;;;4.15;3.35;;;;;;;6.52;81.01;94105.84;5097109;28;20040;-58
2022/04/22 03:40:55;;;;;;;3.50;3.20;;;;;;;6.53;81.36;94107.50;5095815;28;20028;-59
2022/04/22 03:43:22;;;;;;;3.53;3.22;;;;;;;6.49;81.00;94100.91;5096893;28;20040;-59
2022/04/22 03:45:48;;;;;;;3.42;3.22;;;;;;;6.43;82.13;94091.91;5099414;28;20043;-58
2022/04/22 03:48:14;;;;;;;3.38;2.97;;;;;;;6.36;81.80;94096.09;5098253;28;20059;-58
2022/04/22 03:50:40;;;;;;;3.25;3.05;;;;;;;6.32;81.45;94096.59;5097250;28;20479;-58
2022/04/22 03:53:06;;;;;;;4.82;3.17;;;;;;;6.28;81.49;94096.88;5096263;28;20050;-59
2022/04/22 03:55:32;;;;;;;5.15;3.20;;;;;;;6.28;81.90;94091.66;5098230;28;20027;-58
2022/04/22 03:58:10;;;;;;;4.05;3.10;;;;;;;6.30;82.62;94099.34;5097168;28;20032;-59
2022/04/22 04:00:56;;;;;;;10.05;3.63;;;;;;;6.26;83.03;94085.75;5094399;28;20032;-58
2022/04/22 04:03:23;;;;;;;3.92;3.30;;;;;;;6.23;82.51;94090.50;5096352;28;20032;-59
2022/04/22 04:05:51;;;;;;;3.78;3.47;;;;;;;6.19;82.54;94089.97;5098199;28;20031;-58
2022/04/22 04:08:25;;;;;;;5.60;3.25;;;;;;;6.20;83.40;94083.78;5097761;28;20081;-58
2022/04/22 04:16:20;;;;;;;3.38;3.17;;;;;;;6.15;83.38;94088.66;5098782;28;20047;-58
2022/04/22 04:18:45;;;;;;;3.35;3.15;;;;;;;6.13;82.54;94080.94;5094596;28;20028;-58
2022/04/22 04:23:59;;;;;;;3.58;3.28;;;;;;;6.12;83.20;94087.16;5094531;28;20097;-58
2022/04/22 04:26:26;;;;;;;3.22;2.97;;;;;;;6.13;83.26;94080.16;5096433;28;20032;-59
2022/04/22 04:28:52;;;;;;;4.10;3.78;;;;;;;6.10;83.48;94085.69;5097131;28;20070;-58
2022/04/22 04:31:18;;;;;;;3.90;3.60;;;;;;;6.10;83.73;94073.44;5095556;28;20403;-58
2022/04/22 04:33:44;;;;;;;4.78;3.90;;;;;;;6.07;84.03;94075.50;5093080;28;20415;-58
2022/04/22 04:36:10;;;;;;;4.10;3.78;;;;;;;6.02;83.69;94076.81;5098247;28;20487;-59
2022/04/22 04:38:37;;;;;;;3.70;3.50;;;;;;;6.01;83.77;94076.97;5097667;28;20050;-58
2022/04/22 04:41:03;;;;;;;7.60;3.75;;;;;;;6.05;84.01;94080.06;5096446;28;20047;-59
2022/04/22 04:43:29;;;;;;;4.60;4.30;;;;;;;6.04;84.70;94075.81;5094939;28;20554;-58
2022/04/22 04:45:54;;;;;;;4.45;4.05;;;;;;;6.00;84.32;94081.34;5099674;28;20115;-58
2022/04/22 04:48:20;;;;;;;7.60;3.38;;;;;;;6.02;83.85;94076.00;5096192;28;20034;-58
2022/04/22 04:50:46;;;;;;;4.20;3.85;;;;;;;6.04;84.18;94087.13;5095846;28;20417;-58
2022/04/22 04:53:14;;;;;;;4.25;3.85;;;;;;;6.10;84.44;94080.47;5094453;28;20039;-59
2022/04/22 04:55:40;;;;;;;4.18;3.88;;;;;;;6.11;83.99;94084.72;5098637;28;20032;-59
2022/04/22 04:58:06;;;;;;;3.70;3.40;;;;;;;6.08;84.14;94083.22;5097293;28;20373;-58
2022/04/22 05:00:32;;;;;;;4.90;3.85;;;;;;;6.09;83.16;94082.25;5094098;28;20027;-58
2022/04/22 05:02:57;;;;;;;5.90;3.80;;;;;;;6.11;84.07;94092.56;5091911;28;20487;-58
2022/04/22 05:05:23;;;;;;;3.58;3.28;;;;;;;6.14;83.81;94090.44;5097715;28;20042;-58
2022/04/22 05:07:55;;;;;;;5.97;3.40;;;;;;;6.14;83.90;94085.19;5094156;28;20027;-58
2022/04/22 05:10:21;;;;;;;5.70;3.40;;;;;;;6.21;83.56;94088.03;5096107;28;20020;-59
2022/04/22 05:12:47;;;;;;;4.05;3.55;;;;;;;6.24;83.15;94089.53;5096986;28;20483;-59
2022/04/22 05:15:14;;;;;;;5.97;3.25;;;;;;;6.25;83.88;94096.38;5095545;28;20051;-58
2022/04/22 05:17:41;;;;;;;3.83;3.20;;;;;;;6.27;83.21;94100.47;5094386;28;20479;-58
2022/04/22 05:20:08;;;;;;;3.25;3.05;;;;;;;6.30;83.32;94096.75;5098423;28;20043;-59
2022/04/22 05:22:33;;;;;;;3.55;3.17;;;;;;;6.34;82.55;94098.06;5095539;28;20380;-58
2022/04/22 05:24:59;;;;;;;4.50;3.40;;;;;;;6.43;84.02;94099.75;5095078;28;20042;-59
2022/04/22 05:27:24;;;;;;;3.42;3.22;;;;;;;6.48;82.47;94095.84;5094319;28;20460;-58
2022/04/22 05:32:36;;;;;;;3.63;3.33;;;;;;;6.68;82.26;94107.72;5098611;28;20042;-59
2022/04/22 05:35:03;;;;;;;4.78;3.50;;;;;;;6.73;82.79;94105.44;5097453;28;20028;-59
2022/04/22 05:37:42;;;;;;;4.63;4.00;;;;;;;6.75;83.34;94107.91;5094864;28;20051;-59
2022/04/22 05:40:09;;;;;;;3.50;3.20;;;;;;;6.82;81.31;94111.53;5095293;28;20060;-59
2022/04/22 05:42:36;;;;;;;3.63;3.33;;;;;;;6.92;80.21;94113.19;5095710;28;20032;-59
2022/04/22 05:45:02;;;;;;;3.70;3.40;;;;;;;7.04;80.37;94114.53;5095431;28;20043;-59
2022/04/22 05:47:27;;;;;;;3.70;3.40;;;;;;;7.17;80.36;94119.31;5095382;28;20027;-58
2022/04/22 05:49:52;;;;;;;3.33;3.13;;;;;;;7.20;80.60;94102.50;5093578;28;20582;-59
2022/04/22 05:52:18;;;;;;;6.13;3.15;;;;;;;7.24;81.27;94104.59;5093558;28;20028;-59
2022/04/22 05:54:43;;;;;;;3.42;3.22;;;;;;;7.31;80.54;94104.78;5095875;28;20039;-58
2022/04/22 05:57:08;;;;;;;3.25;3.05;;;;;;;7.43;80.67;94108.75;5093240;28;20038;-58
2022/04/22 05:59:34;;;;;;;4.28;3.88;;;;;;;7.53;81.70;94108.59;5093424;28;20059;-58
2022/04/22 06:01:59;;;;;;;6.45;3.38;;;;;;;7.57;80.74;94109.09;5096615;28;20024;-58
2022/04/22 06:04:24;;;;;;;3.72;3.45;;;;;;;7.64;80.40;94109.25;5096124;28;20028;-58
2022/04/22 06:06:50;;;;;;;5.38;3.97;;;;;;;7.67;79.79;94108.94;5094081;28;20032;-58
2022/04/22 06:11:59;;;;;;;6.05;4.20;;;;;;;7.84;78.93;94109.75;5094685;28;20125;-59
2022/04/22 06:14:24;;;;;;;4.35;4.05;;;;;;;7.98;77.66;94113.53;5094891;28;20111;-58
2022/04/22 06:16:50;;;;;;;8.82;4.25;;;;;;;8.13;77.64;94117.09;5095143;28;20035;-59
2022/04/22 06:19:17;;;;;;;3.75;3.45;;;;;;;8.27;77.33;94110.38;5092518;28;20501;-59
2022/04/22 06:21:42;;;;;;;17.85;4.00;;;;;;;8.35;76.95;94114.78;5095492;28;20028;-58
2022/04/22 06:24:08;;;;;;;5.30;3.67;;;;;;;8.33;77.46;94103.63;5094545;28;20031;-58
2022/04/22 06:26:33;;;;;;;4.32;3.92;;;;;;;8.35;77.02;94104.28;5095719;28;20119;-58
2022/04/22 06:28:58;;;;;;;3.67;3.30;;;;;;;8.32;77.22;94105.47;5092024;28;20085;-58
2022/04/22 06:31:24;;;;;;;3.45;3.25;;;;;;;8.41;76.87;94106.25;5093445;28;20035;-58
2022/04/22 06:33:49;;;;;;;4.63;3.40;;;;;;;8.49;76.18;94105.41;5093683;28;20107;-58
2022/04/22 06:36:16;;;;;;;3.40;3.20;;;;;;;8.65;75.55;94114.25;5093111;28;20028;-58
2022/04/22 06:38:44;;;;;;;10.73;3.20;;;;;;;8.89;74.06;94100.22;5095471;28;20123;-59
2022/04/22 06:46:38;;;;;;;4.00;2.90;;;;;;;9.13;74.47;94107.16;5094075;28;20043;-59
2022/04/22 06:49:04;;;;;;;5.07;2.83;;;;;;;9.28;72.32;94106.44;5092612;28;20024;-59
2022/04/22 06:51:29;;;;;;;3.53;3.22;;;;;;;9.40;72.96;94101.59;5093515;28;20028;-58
2022/04/22 06:53:55;;;;;;;3.28;3.00;;;;;;;9.59;70.30;94109.03;5093404;28;20016;-58
2022/04/22 06:56:27;;;;;;;4.72;3.42;;;;;;;9.63;71.05;94113.94;5097311;28;20364;-59
2022/04/22 06:58:53;;;;;;;3.05;2.85;;;;;;;9.78;69.65;94109.56;5100237;28;20040;-59
2022/04/22 07:01:19;;;;;;;5.60;2.90;;;;;;;9.98;67.56;94109.88;5099684;28;20373;-58
2022/04/22 07:03:45;;;;;;;8.02;3.22;;;;;;;9.84;69.07;94108.84;5096597;28;20020;-58
2022/04/22 07:06:10;;;;;;;3.42;3.08;;;;;;;9.96;69.96;94108.44;5098568;28;20024;-59
2022/04/22 07:08:36;;;;;;;3.92;3.25;;;;;;;10.06;67.68;94108.19;5101285;28;20024;-59
2022/04/22 07:11:03;;;;;;;6.38;3.35;;;;;;;10.29;68.06;94118.66;5096480;28;20026;-58
2022/04/22 07:13:29;;;;;;;3.13;2.90;;;;;;;10.37;67.29;94120.41;5096183;28;20403;-58
2022/04/22 07:15:59;;;;;;;3.17;2.95;;;;;;;10.58;66.42;94120.56;5097025;28;20039;-59
2022/04/22 07:18:25;;;;;;;3.58;3.08;;;;;;;10.56;65.44;94122.56;5100153;28;20030;-58
2022/04/22 07:20:51;;;;;;;3.42;2.75;;;;;;;10.79;62.79;94120.81;5098442;28;20039;-58
2022/04/22 07:23:16;;;;;;;3.75;3.10;;;;;;;10.99;61.28;94118.47;5096541;28;20024;-58
2022/04/22 07:25:44;;;;;;;3.97;3.67;;;;;;;10.89;63.01;94119.56;5100187;28;20069;-58
2022/04/22 07:28:12;;;;;;;4.10;3.80;;;;;;;11.18;60.10;94125.81;5102163;28;20069;-58
2022/04/22 07:30:39;;;;;;;4.15;3.85;;;;;;;11.13;61.31;94122.88;5099463;28;20490;-60
2022/04/22 07:33:08;;;;;;;7.40;4.05;;;;;;;11.24;60.89;94126.06;5097098;28;20448;-59
2022/04/22 07:35:34;;;;;;;3.90;3.58;;;;;;;11.38;59.12;94125.19;5096773;28;20043;-58
2022/04/22 07:37:59;;;;;;;4.88;4.10;;;;;;;11.49;60.11;94123.09;5096513;28;20064;-59
2022/04/22 07:40:25;;;;;;;6.18;4.38;;;;;;;11.79;58.92;94134.38;5101102;28;20044;-58
2022/04/22 07:48:22;;;;;;;8.23;4.40;;;;;;;11.78;58.13;94138.00;5100130;28;20090;-58
2022/04/22 07:50:49;;;;;;;4.43;4.05;;;;;;;11.96;58.57;94131.50;5082287;28;20052;-59
2022/04/22 07:53:15;;;;;;;5.32;4.55;;;;;;;12.17;58.10;94138.59;5073438;28;20036;-58
2022/04/22 07:55:41;;;;;;;6.43;4.63;;;;;;;12.66;53.64;94130.81;5073315;28;20025;-58
2022/04/22 07:58:07;;;;;;;5.80;4.28;;;;;;;12.77;54.22;94132.13;5073473;28;20032;-58
2022/04/22 08:00:32;;;;;;;5.15;4.75;;;;;;;12.63;55.15;94133.84;5073472;28;20522;-59
2022/04/22 08:02:58;;;;;;;5.40;4.55;;;;;;;12.48;56.81;94132.13;5073414;28;20313;-58
2022/04/22 08:05:24;;;;;;;11.52;5.35;;;;;;;12.60;57.31;94132.44;5073298;28;20059;-58
2022/04/22 08:07:49;;;;;;;6.78;5.05;;;;;;;12.74;54.77;94128.84;5072664;28;20029;-59
2022/04/22 08:10:14;;;;;;;6.70;4.60;;;;;;;12.78;55.29;94134.56;5073122;28;20414;-58
2022/04/22 08:12:40;;;;;;;5.50;4.90;;;;;;;13.45;51.76;94131.47;5073244;28;20025;-58
2022/04/22 08:15:05;;;;;;;6.25;5.03;;;;;;;13.01;53.32;94128.19;5073293;28;20079;-58
2022/04/22 08:17:37;;;;;;;5.70;4.68;;;;;;;12.95;54.48;94131.63;5073004;28;20476;-58
2022/04/22 08:20:04;;;;;;;4.90;4.50;;;;;;;13.30;52.55;94132.41;5070873;28;20032;-58
2022/04/22 08:22:30;;;;;;;7.25;5.22;;;;;;;13.45;51.60;94137.56;5072917;28;20119;-59
2022/04/22 08:24:56;;;;;;;8.52;5.03;;;;;;;13.75;51.08;94131.16;5072999;28;20214;-58
2022/04/22 08:27:22;;;;;;;8.57;4.85;;;;;;;13.68;50.42;94136.44;5088216;28;20028;-58
2022/04/22 08:29:47;;;;;;;5.32;4.47;;;;;;;13.63;51.38;94130.09;5073035;28;20029;-58
2022/04/22 08:32:13;;;;;;;11.65;4.40;;;;;;;13.95;50.12;94120.59;5072816;28;20039;-58
2022/04/22 08:34:38;;;;;;;5.15;4.65;;;;;;;13.64;51.67;94127.25;5073073;28;20041;-58
2022/04/22 08:37:04;;;;;;;10.35;4.78;;;;;;;13.54;52.73;94126.81;5072711;28;20476;-58
2022/04/22 08:39:29;;;;;;;5.28;4.78;;;;;;;13.40;52.45;94131.22;5072560;28;20032;-58
2022/04/22 08:41:59;;;;;;;5.70;4.32;;;;;;;13.74;51.44;94122.41;5078264;28;20387;-58
2022/04/22 08:44:25;;;;;;;5.40;4.90;;;;;;;14.15;48.61;94123.28;5092634;28;20052;-58
2022/04/22 08:52:21;;;;;;;4.88;4.43;;;;;;;14.46;48.52;94119.22;5092993;28;20081;-58
2022/04/22 08:54:49;;;;;;;4.72;4.32;;;;;;;14.77;46.14;94114.31;5093275;28;20028;-58
2022/04/22 08:57:15;;;;;;;5.32;4.35;;;;;;;14.09;49.79;94118.78;5092461;28;20140;-59
2022/04/22 08:59:41;;;;;;;7.43;4.63;;;;;;;14.46;47.56;94121.84;5092524;28;20494;-58
2022/04/22 09:02:07;;;;;;;4.72;4.32;;;;;;;14.04;49.50;94114.13;5092543;28;20024;-58
2022/04/22 09:04:32;;;;;;;5.10;4.60;;;;;;;13.92;49.76;94120.19;5092279;28;20471;-58
2022/04/22 09:06:59;;;;;;;6.43;4.40;;;;;;;13.84;51.09;94114.06;5092412;28;20445;-58
2022/04/22 09:09:24;;;;;;;5.13;4.63;;;;;;;13.71;51.53;94112.22;5092321;28;20472;-58
2022/04/22 09:11:51;;;;;;;4.70;4.15;;;;;;;13.98;51.00;94117.53;5092320;28;20153;-58
2022/04/22 09:14:20;;;;;;;5.30;4.80;;;;;;;14.36;48.67;94118.00;5092160;28;20076;-58
2022/04/22 09:16:45;;;;;;;4.93;4.43;;;;;;;14.18;50.02;94114.09;5092483;28;20035;-58
2022/04/22 09:19:11;;;;;;;5.75;4.38;;;;;;;14.09;50.24;94113.50;5091715;28;20416;-58
2022/04/22 09:21:38;;;;;;;6.43;4.10;;;;;;;14.36;47.82;94110.03;5092133;28;20035;-59
2022/04/22 09:24:14;;;;;;;4.60;4.30;;;;;;;14.47;46.06;94112.88;5092032;28;20023;-58
2022/04/22 09:26:39;;;;;;;;;;;;;;;14.63;44.97;94112.66;5092394;28;20020;-58
2022/04/22 09:29:06;;;;;;;5.17;4.77;;;;;;;15.04;45.11;94101.81;5090706;28;20332;-58
2022/04/22 09:31:49;;;;;;;6.05;5.53;;;;;;;14.98;48.55;94107.13;5091987;28;20618;-58
2022/04/22 09:34:15;;;;;;;6.28;4.55;;;;;;;15.52;46.44;94107.75;5091766;28;20035;-58
2022/04/22 09:44:54;;;;;;;5.22;4.82;;;;;;;16.27;42.18;94098.31;5092330;28;20464;-58
2022/04/22 09:47:20;;;;;;;7.68;4.70;;;;;;;16.10;43.08;94100.69;5091510;28;20043;-58
2022/04/22 09:49:45;;;;;;;6.15;4.75;;;;;;;15.93;44.07;94099.59;5091776;28;20028;-58
2022/04/22 09:52:11;;;;;;;6.28;4.35;;;;;;;15.94;44.68;94103.88;5091532;28;20372;-59
2022/04/22 09:54:40;;;;;;;4.90;4.50;;;;;;;16.04;42.76;94105.03;5091433;28;20104;-58
2022/04/22 09:57:05;;;;;;;4.72;4.32;;;;;;;15.85;44.17;94105.94;5091457;28;20024;-59
2022/04/22 09:59:33;;;;;;;5.30;4.85;;;;;;;16.26;44.01;94106.50;5091336;28;20032;-58
2022/04/22 10:02:00;;;;;;;7.30;4.75;;;;;;;16.58;43.87;94093.97;5091519;28;20031;-58
2022/04/22 10:04:27;;;;;;;5.20;4.20;;;;;;;17.13;40.81;94095.09;5091314;28;20012;-58
2022/04/22 10:06:52;;;;;;;7.28;5.20;;;;;;;17.26;40.74;94093.31;5091461;28;20396;-58
2022/04/22 10:09:20;;;;;;;5.47;4.95;;;;;;;17.47;42.43;94089.38;5091237;28;20026;-59
2022/04/22 10:11:52;;;;;;;13.15;4.35;;;;;;;17.78;40.10;94084.03;5091369;28;20042;-58
2022/04/22 10:14:35;;;;;;;6.90;5.47;;;;;;;17.66;42.06;94086.66;5091134;28;20016;-58
2022/04/22 10:17:02;;;;;;;9.20;5.43;;;;;;;18.26;43.19;94085.84;5091247;28;20031;-58
2022/04/22 10:19:28;;;;;;;5.75;5.15;;;;;;;18.14;39.83;94084.97;5090892;28;20020;-59
2022/04/22 10:21:54;;;;;;;4.78;4.38;;;;;;;18.37;38.62;94075.41;5091283;28;20012;-59
2022/04/22 10:24:21;;;;;;;7.28;4.15;;;;;;;18.40;38.57;94081.09;5091236;28;20024;-58
2022/04/22 10:26:48;;;;;;;4.35;3.95;;;;;;;18.62;37.51;94072.53;5090961;28;20384;-58
2022/04/22 10:29:14;;;;;;;5.30;4.50;;;;;;;18.37;38.87;94078.06;5091081;28;20052;-59
2022/04/22 10:31:39;;;;;;;6.85;4.40;;;;;;;19.14;37.25;94066.47;5091131;28;20034;-58
2022/04/22 10:34:06;;;;;;;5.18;4.68;;;;;;;19.01;37.09;94072.88;5090969;28;20020;-58
2022/04/22 10:36:33;;;;;;;5.13;4.40;;;;;;;18.91;37.47;94064.63;5091069;28;20419;-58
2022/04/22 10:38:59;;;;;;;6.13;4.80;;;;;;;19.15;37.43;94065.44;5090751;28;20441;-59
2022/04/22 10:41:24;;;;;;;5.95;4.50;;;;;;;18.89;37.40;94062.19;5090646;28;20077;-58
2022/04/22 10:49:36;;;;;;;5.60;4.05;;;;;;;18.42;36.88;94067.53;5090985;28;20031;-59
2022/04/22 10:52:14;;;;;;;8.18;3.80;;;;;;;18.00;37.68;94061.19;5090530;28;20021;-58
2022/04/22 10:54:52;;;;;;;5.35;4.35;;;;;;;17.31;39.91;94062.34;5090829;28;20112;-58
2022/04/22 10:57:36;;;;;;;4.53;3.85;;;;;;;17.49;40.02;94057.22;5090750;28;20032;-58
2022/04/22 11:00:08;;;;;;;3.97;3.47;;;;;;;17.61;39.34;94061.53;5090666;28;20483;-58
2022/04/22 11:02:35;;;;;;;5.30;4.07;;;;;;;17.06;41.81;94062.44;5090645;28;20070;-58
2022/04/22 11:05:19;;;;;;;6.13;4.50;;;;;;;17.00;42.34;94066.00;5090814;28;20024;-58
2022/04/22 11:07:50;;;;;;;5.07;4.55;;;;;;;16.90;42.12;94055.84;5090725;28;20055;-58
2022/04/22 11:10:16;;;;;;;6.55;4.20;;;;;;;17.67;41.29;94057.16;5090618;28;20056;-58
2022/04/22 11:12:55;;;;;;;6.88;4.50;;;;;;;18.58;39.11;94058.84;5090408;28;20066;-58
2022/04/22 11:15:42;;;;;;;4.30;3.97;;;;;;;18.40;39.13;94054.44;5090709;28;20549;-58
2022/04/22 11:18:10;;;;;;;11.10;4.03;;;;;;;19.35;38.43;94048.22;5090422;28;20028;-58
2022/04/22 11:20:37;;;;;;;4.63;3.88;;;;;;;19.80;36.66;94043.94;5090206;28;20089;-58
2022/04/22 11:23:05;;;;;;;9.18;3.72;;;;;;;20.74;34.10;94049.72;5090281;28;20028;-58
2022/04/22 11:25:31;;;;;;;4.55;4.22;;;;;;;20.65;35.60;94042.38;5090586;28;20050;-58
2022/04/22 11:27:57;;;;;;;3.70;3.40;;;;;;;20.73;34.71;94047.31;5090627;28;20077;-58
2022/04/22 11:30:25;;;;;;;3.85;3.50;;;;;;;21.33;32.65;94039.53;5090310;28;20115;-58
2022/04/22 11:32:53;;;;;;;3.13;2.83;;;;;;;21.39;31.78;94038.53;5090515;28;20036;-58
2022/04/22 11:35:20;;;;;;;3.42;3.00;;;;;;;21.23;32.84;94034.06;5090331;28;20111;-58
2022/04/22 11:37:56;;;;;;;3.42;3.13;;;;;;;21.85;31.76;94030.19;5090382;28;20032;-58
2022/04/22 11:40:22;;;;;;;4.93;2.70;;;;;;;22.17;30.52;94026.75;5090346;28;20028;-59
2022/04/22 11:42:49;;;;;;;3.42;2.95;;;;;;;21.51;32.93;94032.22;5093260;28;20498;-58
2022/04/22 11:45:16;;;;;;;3.08;2.78;;;;;;;22.23;31.60;94019.56;5093790;28;20085;-58
2022/04/22 11:47:42;;;;;;;2.53;2.33;;;;;;;22.31;30.69;94019.06;5094108;28;20027;-59
2022/04/22 11:50:09;;;;;;;3.60;2.50;;;;;;;22.67;30.89;94023.09;5094030;28;20032;-58
2022/04/22 11:52:35;;;;;;;2.80;2.50;;;;;;;22.98;28.87;94015.22;5093844;28;20031;-59
2022/04/22 11:55:01;;;;;;;3.85;2.30;;;;;;;22.72;30.34;94023.91;5094057;28;20020;-58
2022/04/22 11:57:32;;;;;;;3.05;2.25;;;;;;;22.62;29.11;94010.47;5093937;28;20026;-58
2022/04/22 12:05:36;;;;;;;2.35;2.15;;;;;;;22.57;31.54;94011.22;5093922;28;20085;-59
2022/04/22 12:08:07;;;;;;;2.92;2.70;;;;;;;23.03;29.53;94013.38;5093911;28;20020;-59
2022/04/22 12:10:33;;;;;;;4.32;2.28;;;;;;;23.33;28.16;94011.09;5093616;28;20040;-58
2022/04/22 12:13:03;;;;;;;3.28;1.90;;;;;;;23.17;30.94;94007.50;5093584;28;20548;-58
2022/04/22 12:15:29;;;;;;;2.42;2.00;;;;;;;23.38;27.66;94003.06;5093605;28;20111;-58
2022/04/22 12:17:56;;;;;;;3.72;2.75;;;;;;;23.55;27.01;94000.16;5093625;28;20459;-58
2022/04/22 12:20:22;;;;;;;4.10;3.45;;;;;;;23.04;27.64;93998.88;5093337;28;20020;-58
2022/04/22 12:22:52;;;;;;;3.65;2.50;;;;;;;22.95;29.81;93991.59;5093283;28;20034;-59
2022/04/22 12:25:20;;;;;;;4.40;2.03;;;;;;;23.26;28.46;93997.94;5093381;28;20024;-59
2022/04/22 12:28:09;;;;;;;1.92;1.83;;;;;;;23.05;28.74;93994.31;5093276;28;20028;-58
2022/04/22 12:30:39;;;;;;;2.45;2.03;;;;;;;22.65;29.23;94001.06;5093111;28;20502;-59
2022/04/22 12:33:05;;;;;;;1.75;1.63;;;;;;;22.55;28.79;93991.13;5093393;28;20020;-58
2022/04/22 12:35:31;;;;;;;1.73;1.63;;;;;;;22.18;29.64;93990.84;5092748;28;20020;-58
2022/04/22 12:37:57;;;;;;;4.20;2.10;;;;;;;21.83;29.60;94002.88;5092994;28;20070;-58
2022/04/22 12:40:22;;;;;;;4.70;2.30;;;;;;;22.04;29.69;93993.16;5092831;28;20038;-59